TimeMDT,TemperatureF,Dew PointF,Humidity,Sea Level PressureIn,VisibilityMPH,Wind Direction,Wind SpeedMPH,Gust SpeedMPH,PrecipitationIn,Events,Conditions,WindDirDegrees,DateUTC
12:53 AM,51.1,35.1,54,30.00,10.0,SSW,9.2,-,N/A,,Clear,200,2011-10-24 06:53:00
1:53 AM,42.1,35.1,76,30.01,10.0,North,5.8,-,N/A,,Clear,10,2011-10-24 07:53:00
2:00 AM,-9999,-9999,N/A,-9999,-9999.0,North,-9999.0,-,N/A,,Unknown,0,2011-10-24 08:00:00
2:53 AM,39.9,34.0,79,29.99,10.0,North,5.8,-,N/A,,Clear,360,2011-10-24 08:53:00
3:53 AM,39.0,34.0,82,29.97,10.0,Calm,Calm,-,N/A,,Clear,0,2011-10-24 09:53:00
4:53 AM,39.0,35.1,86,29.95,10.0,NE,3.5,-,N/A,,Clear,50,2011-10-24 10:53:00
5:53 AM,37.9,34.0,86,29.96,10.0,East,4.6,-,N/A,,Clear,80,2011-10-24 11:53:00
6:53 AM,37.0,34.0,89,29.97,10.0,ENE,6.9,-,N/A,,Clear,60,2011-10-24 12:53:00
7:53 AM,37.0,33.1,86,29.96,10.0,Variable,3.5,-,N/A,,Clear,0,2011-10-24 13:53:00
8:53 AM,37.0,33.1,86,29.97,10.0,ENE,4.6,-,N/A,,Clear,70,2011-10-24 14:53:00
9:53 AM,42.1,35.1,76,29.95,10.0,East,3.5,-,N/A,,Clear,80,2011-10-24 15:53:00
10:53 AM,44.1,37.0,76,29.93,10.0,East,3.5,-,N/A,,Clear,80,2011-10-24 16:53:00
11:53 AM,52.0,39.0,61,29.90,10.0,Calm,Calm,-,N/A,,Clear,0,2011-10-24 17:53:00
12:53 PM,55.9,34.0,44,29.87,10.0,SW,15.0,23.0,N/A,,Clear,230,2011-10-24 18:53:00
1:53 PM,55.9,35.1,45,29.89,10.0,SW,16.1,24.2,N/A,,Clear,230,2011-10-24 19:53:00
2:53 PM,57.0,36.0,45,29.87,10.0,SSW,17.3,24.2,N/A,,Clear,210,2011-10-24 20:53:00
3:53 PM,57.9,37.0,46,29.87,10.0,SSW,15.0,-,N/A,,Clear,210,2011-10-24 21:53:00
4:00 PM,-9999,-9999,N/A,-9999,-9999.0,North,-9999.0,-,N/A,,Unknown,0,2011-10-24 22:00:00
4:53 PM,57.0,37.0,47,29.88,10.0,SW,19.6,25.3,N/A,,Clear,230,2011-10-24 22:53:00
5:53 PM,54.0,39.9,59,29.90,10.0,SW,12.7,20.7,N/A,,Mostly Cloudy,220,2011-10-24 23:53:00
6:53 PM,52.0,42.1,69,29.91,10.0,SW,16.1,26.5,N/A,,Mostly Cloudy,220,2011-10-25 00:53:00
7:53 PM,51.1,41.0,68,29.93,10.0,SSW,19.6,32.2,N/A,,Partly Cloudy,210,2011-10-25 01:53:00
8:53 PM,48.9,37.9,66,29.97,10.0,SW,17.3,28.8,N/A,,Clear,220,2011-10-25 02:53:00
9:53 PM,46.0,34.0,63,30.01,10.0,SW,16.1,24.2,N/A,,Partly Cloudy,230,2011-10-25 03:53:00
10:53 PM,43.0,28.0,56,30.04,10.0,SW,9.2,-,N/A,,Scattered Clouds,220,2011-10-25 04:53:00
11:53 PM,41.0,28.0,60,30.04,10.0,South,9.2,-,N/A,,Mostly Cloudy,180,2011-10-25 05:53:00